sensor_id;sensor_type;location;lat;lon;timestamp;pressure;altitude;pressure_sealevel;temperature;humidity
7802;BME280;3945;48.952;9.506;2022-09-09T00:01:37;97626.34;;;14.93;81.38
7802;BME280;3945;48.952;9.506;2022-09-09T00:04:09;97619.91;;;14.94;81.05
7802;BME280;3945;48.952;9.506;2022-09-09T00:06:43;97627.47;;;14.87;81.50
7802;BME280;3945;48.952;9.506;2022-09-09T00:09:12;97621.88;;;14.83;81.25
7802;BME280;3945;48.952;9.506;2022-09-09T00:11:40;97628.53;;;14.86;81.47
7802;BME280;3945;48.952;9.506;2022-09-09T00:14:10;97628.25;;;14.88;81.47
7802;BME280;3945;48.952;9.506;2022-09-09T00:16:39;97628.78;;;14.90;81.42
7802;BME280;3945;48.952;9.506;2022-09-09T00:19:12;97628.00;;;14.89;81.64
7802;BME280;3945;48.952;9.506;2022-09-09T00:21:43;97637.34;;;14.92;81.66
7802;BME280;3945;48.952;9.506;2022-09-09T00:24:22;97635.47;;;14.92;81.74
7802;BME280;3945;48.952;9.506;2022-09-09T00:26:51;97628.53;;;14.91;81.68
7802;BME280;3945;48.952;9.506;2022-09-09T00:29:22;97626.13;;;14.90;81.51
7802;BME280;3945;48.952;9.506;2022-09-09T00:31:53;97625.84;;;14.86;81.58
7802;BME280;3945;48.952;9.506;2022-09-09T00:34:21;97625.09;;;14.80;81.89
7802;BME280;3945;48.952;9.506;2022-09-09T00:36:49;97622.44;;;14.75;81.93
7802;BME280;3945;48.952;9.506;2022-09-09T00:39:18;97621.91;;;14.73;81.46
7802;BME280;3945;48.952;9.506;2022-09-09T00:41:49;97616.03;;;14.66;81.79
7802;BME280;3945;48.952;9.506;2022-09-09T00:44:24;97618.97;;;14.65;82.09
7802;BME280;3945;48.952;9.506;2022-09-09T00:46:56;97621.69;;;14.60;82.08
7802;BME280;3945;48.952;9.506;2022-09-09T00:49:30;97613.94;;;14.53;82.29
7802;BME280;3945;48.952;9.506;2022-09-09T00:52:03;97621.19;;;14.53;82.26
7802;BME280;3945;48.952;9.506;2022-09-09T00:54:34;97626.00;;;14.51;82.22
7802;BME280;3945;48.952;9.506;2022-09-09T00:57:05;97626.28;;;14.54;81.67
7802;BME280;3945;48.952;9.506;2022-09-09T00:59:37;97629.19;;;14.58;81.82
7802;BME280;3945;48.952;9.506;2022-09-09T01:02:13;97632.66;;;14.58;81.78
7802;BME280;3945;48.952;9.506;2022-09-09T01:04:42;97628.13;;;14.59;81.80
7802;BME280;3945;48.952;9.506;2022-09-09T01:07:12;97626.25;;;14.59;81.87
7802;BME280;3945;48.952;9.506;2022-09-09T01:09:43;97619.56;;;14.62;82.17
7802;BME280;3945;48.952;9.506;2022-09-09T01:12:12;97618.44;;;14.63;82.04
7802;BME280;3945;48.952;9.506;2022-09-09T01:14:43;97623.81;;;14.63;81.66
7802;BME280;3945;48.952;9.506;2022-09-09T01:17:14;97635.31;;;14.63;81.95
7802;BME280;3945;48.952;9.506;2022-09-09T01:19:45;97627.56;;;14.67;81.87
7802;BME280;3945;48.952;9.506;2022-09-09T01:22:19;97643.59;;;14.72;81.74
7802;BME280;3945;48.952;9.506;2022-09-09T01:25:09;97638.50;;;14.70;82.16
7802;BME280;3945;48.952;9.506;2022-09-09T01:27:40;97631.28;;;14.76;82.27
7802;BME280;3945;48.952;9.506;2022-09-09T01:30:09;97638.22;;;14.77;81.66
7802;BME280;3945;48.952;9.506;2022-09-09T01:32:37;97624.00;;;14.81;81.77
7802;BME280;3945;48.952;9.506;2022-09-09T01:35:04;97631.22;;;14.86;81.52
7802;BME280;3945;48.952;9.506;2022-09-09T01:37:33;97632.53;;;14.89;81.54
7802;BME280;3945;48.952;9.506;2022-09-09T01:40:00;97629.59;;;14.90;81.69
7802;BME280;3945;48.952;9.506;2022-09-09T01:42:26;97619.38;;;14.92;81.93
7802;BME280;3945;48.952;9.506;2022-09-09T01:44:54;97623.66;;;14.93;81.91
7802;BME280;3945;48.952;9.506;2022-09-09T01:47:20;97625.00;;;14.96;82.07
7802;BME280;3945;48.952;9.506;2022-09-09T01:49:46;97634.38;;;14.98;82.43
7802;BME280;3945;48.952;9.506;2022-09-09T01:52:13;97634.34;;;15.03;82.45
7802;BME280;3945;48.952;9.506;2022-09-09T01:54:39;97634.34;;;15.03;82.56
7802;BME280;3945;48.952;9.506;2022-09-09T01:57:06;97637.78;;;15.09;82.68
7802;BME280;3945;48.952;9.506;2022-09-09T01:59:42;97632.94;;;15.16;82.00
7802;BME280;3945;48.952;9.506;2022-09-09T02:02:13;97639.59;;;15.23;81.53
7802;BME280;3945;48.952;9.506;2022-09-09T02:04:42;97639.84;;;15.27;81.60
7802;BME280;3945;48.952;9.506;2022-09-09T02:07:15;97637.41;;;15.31;81.93
7802;BME280;3945;48.952;9.506;2022-09-09T02:09:47;97640.34;;;15.34;82.40
7802;BME280;3945;48.952;9.506;2022-09-09T02:12:16;97638.44;;;15.35;82.10
7802;BME280;3945;48.952;9.506;2022-09-09T02:14:46;97635.22;;;15.38;82.13
7802;BME280;3945;48.952;9.506;2022-09-09T02:17:16;97630.66;;;15.38;82.22
7802;BME280;3945;48.952;9.506;2022-09-09T02:19:45;97629.03;;;15.37;82.22
7802;BME280;3945;48.952;9.506;2022-09-09T02:22:14;97624.47;;;15.38;82.24
7802;BME280;3945;48.952;9.506;2022-09-09T02:24:42;97623.69;;;15.37;82.27
7802;BME280;3945;48.952;9.506;2022-09-09T02:27:08;97621.84;;;15.33;81.95
7802;BME280;3945;48.952;9.506;2022-09-09T02:29:36;97618.94;;;15.24;82.00
7802;BME280;3945;48.952;9.506;2022-09-09T02:32:05;97611.44;;;15.26;81.99
7802;BME280;3945;48.952;9.506;2022-09-09T02:34:34;97610.38;;;15.22;81.87
7802;BME280;3945;48.952;9.506;2022-09-09T02:37:02;97603.72;;;15.19;81.30
7802;BME280;3945;48.952;9.506;2022-09-09T02:39:29;97603.72;;;15.14;81.19
7802;BME280;3945;48.952;9.506;2022-09-09T02:41:55;97619.00;;;15.14;81.62
7802;BME280;3945;48.952;9.506;2022-09-09T02:44:22;97621.19;;;15.12;81.85
7802;BME280;3945;48.952;9.506;2022-09-09T02:46:57;97628.91;;;15.13;81.87
7802;BME280;3945;48.952;9.506;2022-09-09T02:49:28;97624.13;;;15.10;81.80
7802;BME280;3945;48.952;9.506;2022-09-09T02:52:01;97630.84;;;15.08;81.76
7802;BME280;3945;48.952;9.506;2022-09-09T02:54:28;97623.06;;;15.06;81.69
7802;BME280;3945;48.952;9.506;2022-09-09T02:56:58;97626.84;;;15.05;81.44
7802;BME280;3945;48.952;9.506;2022-09-09T02:59:26;97635.41;;;15.02;81.49
7802;BME280;3945;48.952;9.506;2022-09-09T03:01:52;97639.75;;;14.98;82.10
7802;BME280;3945;48.952;9.506;2022-09-09T03:04:19;97649.69;;;14.88;82.61
7802;BME280;3945;48.952;9.506;2022-09-09T03:06:46;97648.91;;;14.87;82.92
7802;BME280;3945;48.952;9.506;2022-09-09T03:09:13;97648.66;;;14.83;83.19
7802;BME280;3945;48.952;9.506;2022-09-09T03:11:40;97644.13;;;14.74;83.49
7802;BME280;3945;48.952;9.506;2022-09-09T03:14:06;97628.34;;;14.67;83.43
7802;BME280;3945;48.952;9.506;2022-09-09T03:16:33;97644.47;;;14.62;83.52
7802;BME280;3945;48.952;9.506;2022-09-09T03:19:00;97634.81;;;14.56;83.36
7802;BME280;3945;48.952;9.506;2022-09-09T03:21:26;97643.41;;;14.53;83.12
7802;BME280;3945;48.952;9.506;2022-09-09T03:23:53;97637.28;;;14.48;83.23
7802;BME280;3945;48.952;9.506;2022-09-09T03:26:20;97627.63;;;14.36;83.38
7802;BME280;3945;48.952;9.506;2022-09-09T03:28:48;97631.38;;;14.35;83.75
7802;BME280;3945;48.952;9.506;2022-09-09T03:31:16;97628.97;;;14.34;83.59
7802;BME280;3945;48.952;9.506;2022-09-09T03:33:44;97627.66;;;14.31;83.83
7802;BME280;3945;48.952;9.506;2022-09-09T03:36:10;97622.81;;;14.28;83.90
7802;BME280;3945;48.952;9.506;2022-09-09T03:38:37;97615.63;;;14.24;83.66
7802;BME280;3945;48.952;9.506;2022-09-09T03:41:03;97610.56;;;14.17;83.58
7802;BME280;3945;48.952;9.506;2022-09-09T03:43:32;97610.84;;;14.11;83.17
7802;BME280;3945;48.952;9.506;2022-09-09T03:45:58;97622.63;;;14.04;83.76
7802;BME280;3945;48.952;9.506;2022-09-09T03:48:25;97623.97;;;14.02;83.74
7802;BME280;3945;48.952;9.506;2022-09-09T03:50:53;97627.97;;;13.99;84.11
7802;BME280;3945;48.952;9.506;2022-09-09T03:53:21;97629.84;;;13.99;84.29
7802;BME280;3945;48.952;9.506;2022-09-09T03:55:48;97639.72;;;13.98;84.48
7802;BME280;3945;48.952;9.506;2022-09-09T03:58:17;97630.91;;;13.98;84.59
7802;BME280;3945;48.952;9.506;2022-09-09T04:00:53;97621.53;;;14.00;84.76
7802;BME280;3945;48.952;9.506;2022-09-09T04:03:19;97617.81;;;14.01;85.15
7802;BME280;3945;48.952;9.506;2022-09-09T04:05:48;97626.63;;;14.07;84.88
7802;BME280;3945;48.952;9.506;2022-09-09T04:08:14;97622.84;;;14.13;85.08
7802;BME280;3945;48.952;9.506;2022-09-09T04:10:41;97641.88;;;14.17;84.57
7802;BME280;3945;48.952;9.506;2022-09-09T04:13:07;97635.44;;;14.18;84.67
7802;BME280;3945;48.952;9.506;2022-09-09T04:15:33;97632.47;;;14.19;84.68
7802;BME280;3945;48.952;9.506;2022-09-09T04:18:03;97631.97;;;14.17;84.61
7802;BME280;3945;48.952;9.506;2022-09-09T04:20:29;97636.78;;;14.15;84.42
7802;BME280;3945;48.952;9.506;2022-09-09T04:22:55;97639.72;;;14.14;84.59
7802;BME280;3945;48.952;9.506;2022-09-09T04:25:22;97633.56;;;14.13;84.60
7802;BME280;3945;48.952;9.506;2022-09-09T04:27:52;97638.66;;;14.10;84.48
7802;BME280;3945;48.952;9.506;2022-09-09T04:30:19;97642.13;;;14.05;84.78
7802;BME280;3945;48.952;9.506;2022-09-09T04:32:46;97643.22;;;13.99;84.41
7802;BME280;3945;48.952;9.506;2022-09-09T04:35:13;97644.00;;;13.99;84.41
7802;BME280;3945;48.952;9.506;2022-09-09T04:37:40;97639.22;;;13.96;84.84
7802;BME280;3945;48.952;9.506;2022-09-09T04:40:07;97644.84;;;13.90;84.84
7802;BME280;3945;48.952;9.506;2022-09-09T04:42:34;97643.25;;;13.89;85.14
7802;BME280;3945;48.952;9.506;2022-09-09T04:45:00;97646.97;;;13.88;85.48
7802;BME280;3945;48.952;9.506;2022-09-09T04:47:27;97643.50;;;13.82;85.84
7802;BME280;3945;48.952;9.506;2022-09-09T04:49:53;97645.38;;;13.82;85.75
7802;BME280;3945;48.952;9.506;2022-09-09T04:52:21;97642.16;;;13.80;86.38
7802;BME280;3945;48.952;9.506;2022-09-09T04:54:47;97654.72;;;13.84;86.09
7802;BME280;3945;48.952;9.506;2022-09-09T04:57:14;97659.53;;;13.87;85.86
7802;BME280;3945;48.952;9.506;2022-09-09T04:59:40;97661.94;;;13.94;86.40
7802;BME280;3945;48.952;9.506;2022-09-09T05:02:06;97651.53;;;13.97;86.66
7802;BME280;3945;48.952;9.506;2022-09-09T05:04:33;97647.78;;;14.03;85.61
7802;BME280;3945;48.952;9.506;2022-09-09T05:06:59;97657.13;;;14.06;84.92
7802;BME280;3945;48.952;9.506;2022-09-09T05:09:27;97659.81;;;14.11;85.51
7802;BME280;3945;48.952;9.506;2022-09-09T05:11:54;97669.94;;;14.14;85.13
7802;BME280;3945;48.952;9.506;2022-09-09T05:14:21;97666.75;;;14.12;85.23
7802;BME280;3945;48.952;9.506;2022-09-09T05:16:47;97672.63;;;14.14;85.79
7802;BME280;3945;48.952;9.506;2022-09-09T05:19:14;97669.69;;;14.16;85.93
7802;BME280;3945;48.952;9.506;2022-09-09T05:21:44;97684.41;;;14.18;86.09
7802;BME280;3945;48.952;9.506;2022-09-09T05:24:10;97681.72;;;14.23;85.79
7802;BME280;3945;48.952;9.506;2022-09-09T05:26:38;97682.53;;;14.24;85.58
7802;BME280;3945;48.952;9.506;2022-09-09T05:29:04;97681.47;;;14.25;85.56
7802;BME280;3945;48.952;9.506;2022-09-09T05:31:31;97677.97;;;14.29;85.56
7802;BME280;3945;48.952;9.506;2022-09-09T05:33:58;97678.25;;;14.33;85.71
7802;BME280;3945;48.952;9.506;2022-09-09T05:36:24;97678.25;;;14.38;85.47
7802;BME280;3945;48.952;9.506;2022-09-09T05:38:51;97677.69;;;14.51;85.36
7802;BME280;3945;48.952;9.506;2022-09-09T05:41:19;97680.63;;;14.55;84.94
7802;BME280;3945;48.952;9.506;2022-09-09T05:43:46;97682.50;;;14.54;85.15
7802;BME280;3945;48.952;9.506;2022-09-09T05:46:14;97679.28;;;14.62;84.45
7802;BME280;3945;48.952;9.506;2022-09-09T05:48:41;97682.47;;;14.64;84.48
7802;BME280;3945;48.952;9.506;2022-09-09T05:51:10;97680.84;;;14.63;84.95
7802;BME280;3945;48.952;9.506;2022-09-09T05:53:37;97686.75;;;14.65;84.77
7802;BME280;3945;48.952;9.506;2022-09-09T05:56:04;97681.38;;;14.70;85.08
7802;BME280;3945;48.952;9.506;2022-09-09T05:58:31;97690.72;;;14.78;84.88
7802;BME280;3945;48.952;9.506;2022-09-09T06:01:03;97695.53;;;14.81;84.67
7802;BME280;3945;48.952;9.506;2022-09-09T06:03:30;97689.06;;;14.92;84.02
7802;BME280;3945;48.952;9.506;2022-09-09T06:05:57;97698.41;;;15.00;83.40
7802;BME280;3945;48.952;9.506;2022-09-09T06:08:23;97689.53;;;15.09;82.79
7802;BME280;3945;48.952;9.506;2022-09-09T06:10:50;97683.59;;;15.17;81.69
7802;BME280;3945;48.952;9.506;2022-09-09T06:13:17;97686.69;;;15.35;81.61
7802;BME280;3945;48.952;9.506;2022-09-09T06:15:48;97680.22;;;15.46;81.40
7802;BME280;3945;48.952;9.506;2022-09-09T06:18:16;97683.38;;;15.58;81.09
7802;BME280;3945;48.952;9.506;2022-09-09T06:20:43;97680.63;;;15.68;79.68
7802;BME280;3945;48.952;9.506;2022-09-09T06:23:09;97678.63;;;15.84;79.62
7802;BME280;3945;48.952;9.506;2022-09-09T06:25:37;97681.97;;;15.99;78.21
7802;BME280;3945;48.952;9.506;2022-09-09T06:28:05;97680.75;;;16.16;77.94
7802;BME280;3945;48.952;9.506;2022-09-09T06:30:32;97673.16;;;16.28;78.00
7802;BME280;3945;48.952;9.506;2022-09-09T06:32:58;97679.53;;;16.61;79.62
7802;BME280;3945;48.952;9.506;2022-09-09T06:35:25;97676.16;;;16.98;77.55
7802;BME280;3945;48.952;9.506;2022-09-09T06:37:52;97679.75;;;17.12;76.51
7802;BME280;3945;48.952;9.506;2022-09-09T06:40:18;97673.22;;;17.37;76.76
7802;BME280;3945;48.952;9.506;2022-09-09T06:42:45;97680.13;;;17.80;73.36
7802;BME280;3945;48.952;9.506;2022-09-09T06:45:11;97678.84;;;18.10;70.95
7802;BME280;3945;48.952;9.506;2022-09-09T06:47:37;97684.75;;;18.26;70.41
7802;BME280;3945;48.952;9.506;2022-09-09T06:50:04;97684.88;;;18.34;69.63
7802;BME280;3945;48.952;9.506;2022-09-09T06:52:32;97684.22;;;18.43;69.10
7802;BME280;3945;48.952;9.506;2022-09-09T06:54:58;97690.41;;;18.43;68.81
7802;BME280;3945;48.952;9.506;2022-09-09T06:57:25;97684.28;;;18.38;69.18
7802;BME280;3945;48.952;9.506;2022-09-09T06:59:51;97687.88;;;18.33;69.24
7802;BME280;3945;48.952;9.506;2022-09-09T07:02:17;97685.97;;;18.33;68.93
7802;BME280;3945;48.952;9.506;2022-09-09T07:04:43;97694.88;;;18.34;68.96
7802;BME280;3945;48.952;9.506;2022-09-09T07:07:10;97690.28;;;18.34;69.04
7802;BME280;3945;48.952;9.506;2022-09-09T07:09:40;97693.16;;;18.38;68.57
7802;BME280;3945;48.952;9.506;2022-09-09T07:12:06;97691.78;;;18.41;69.69
7802;BME280;3945;48.952;9.506;2022-09-09T07:14:32;97691.97;;;18.44;70.39
7802;BME280;3945;48.952;9.506;2022-09-09T07:16:59;97694.88;;;18.48;70.71
7802;BME280;3945;48.952;9.506;2022-09-09T07:19:25;97703.38;;;18.55;70.19
7802;BME280;3945;48.952;9.506;2022-09-09T07:21:52;97707.59;;;18.61;68.55
7802;BME280;3945;48.952;9.506;2022-09-09T07:24:19;97700.03;;;18.77;68.77
7802;BME280;3945;48.952;9.506;2022-09-09T07:26:46;97703.72;;;18.81;68.77
7802;BME280;3945;48.952;9.506;2022-09-09T07:29:13;97691.84;;;18.95;67.78
7802;BME280;3945;48.952;9.506;2022-09-09T07:31:39;97686.34;;;19.14;67.54
7802;BME280;3945;48.952;9.506;2022-09-09T07:34:06;97691.09;;;19.31;67.61
7802;BME280;3945;48.952;9.506;2022-09-09T07:36:33;97691.19;;;19.53;66.02
7802;BME280;3945;48.952;9.506;2022-09-09T07:39:00;97693.75;;;19.72;66.71
7802;BME280;3945;48.952;9.506;2022-09-09T07:41:27;97692.53;;;20.00;64.64
7802;BME280;3945;48.952;9.506;2022-09-09T07:43:56;97693.38;;;20.09;64.34
7802;BME280;3945;48.952;9.506;2022-09-09T07:46:24;97694.84;;;20.15;64.79
7802;BME280;3945;48.952;9.506;2022-09-09T07:48:51;97695.81;;;20.19;64.78
7802;BME280;3945;48.952;9.506;2022-09-09T07:51:18;97695.38;;;20.26;65.56
7802;BME280;3945;48.952;9.506;2022-09-09T07:53:46;97698.16;;;20.35;65.43
7802;BME280;3945;48.952;9.506;2022-09-09T07:56:14;97702.25;;;20.54;65.08
7802;BME280;3945;48.952;9.506;2022-09-09T07:58:41;97702.38;;;20.80;65.57
7802;BME280;3945;48.952;9.506;2022-09-09T08:01:10;97703.91;;;21.12;62.90
7802;BME280;3945;48.952;9.506;2022-09-09T08:03:37;97700.50;;;21.37;61.93
7802;BME280;3945;48.952;9.506;2022-09-09T08:06:05;97697.31;;;21.44;60.82
7802;BME280;3945;48.952;9.506;2022-09-09T08:08:32;97691.91;;;21.44;60.44
7802;BME280;3945;48.952;9.506;2022-09-09T08:11:02;97693.81;;;21.43;59.69
7802;BME280;3945;48.952;9.506;2022-09-09T08:13:28;97687.28;;;21.45;60.80
7802;BME280;3945;48.952;9.506;2022-09-09T08:16:02;97706.09;;;21.58;60.16
7802;BME280;3945;48.952;9.506;2022-09-09T08:18:30;97712.66;;;21.74;59.81
7802;BME280;3945;48.952;9.506;2022-09-09T08:20:57;97718.69;;;21.80;58.51
7802;BME280;3945;48.952;9.506;2022-09-09T08:23:23;97715.81;;;21.94;58.97
7802;BME280;3945;48.952;9.506;2022-09-09T08:25:50;97713.28;;;22.06;57.94
7802;BME280;3945;48.952;9.506;2022-09-09T08:28:17;97700.22;;;22.25;57.86
7802;BME280;3945;48.952;9.506;2022-09-09T08:30:43;97703.47;;;22.56;57.98
7802;BME280;3945;48.952;9.506;2022-09-09T08:33:09;97702.59;;;22.90;55.59
7802;BME280;3945;48.952;9.506;2022-09-09T08:35:37;97697.28;;;22.94;53.51
7802;BME280;3945;48.952;9.506;2022-09-09T08:38:03;97707.44;;;23.06;55.51
7802;BME280;3945;48.952;9.506;2022-09-09T08:40:31;97707.69;;;23.21;54.26
7802;BME280;3945;48.952;9.506;2022-09-09T08:43:00;97706.31;;;23.36;53.91
7802;BME280;3945;48.952;9.506;2022-09-09T08:45:31;97706.44;;;23.48;53.80
7802;BME280;3945;48.952;9.506;2022-09-09T08:48:03;97704.06;;;23.67;53.19
7802;BME280;3945;48.952;9.506;2022-09-09T08:50:34;97699.97;;;23.82;53.00
7802;BME280;3945;48.952;9.506;2022-09-09T08:53:03;97716.06;;;23.87;52.78
7802;BME280;3945;48.952;9.506;2022-09-09T08:55:35;97712.63;;;23.99;53.23
7802;BME280;3945;48.952;9.506;2022-09-09T08:58:04;97712.13;;;24.18;52.04
7802;BME280;3945;48.952;9.506;2022-09-09T09:00:34;97714.44;;;24.07;51.50
7802;BME280;3945;48.952;9.506;2022-09-09T09:03:06;97716.53;;;23.89;51.80
7802;BME280;3945;48.952;9.506;2022-09-09T09:05:36;97716.25;;;23.82;52.27
7802;BME280;3945;48.952;9.506;2022-09-09T09:08:06;97709.22;;;23.81;51.24
7802;BME280;3945;48.952;9.506;2022-09-09T09:10:39;97711.34;;;23.96;51.13
7802;BME280;3945;48.952;9.506;2022-09-09T09:13:12;97697.13;;;24.11;51.74
7802;BME280;3945;48.952;9.506;2022-09-09T09:15:40;97694.94;;;24.26;51.00
7802;BME280;3945;48.952;9.506;2022-09-09T09:18:07;97696.41;;;24.23;50.27
7802;BME280;3945;48.952;9.506;2022-09-09T09:20:38;97699.28;;;24.06;50.06
7802;BME280;3945;48.952;9.506;2022-09-09T09:23:12;97692.06;;;23.89;51.06
7802;BME280;3945;48.952;9.506;2022-09-09T09:25:42;97700.13;;;23.56;51.84
7802;BME280;3945;48.952;9.506;2022-09-09T09:28:10;97700.03;;;23.44;53.04
7802;BME280;3945;48.952;9.506;2022-09-09T09:30:42;97687.44;;;23.48;51.95
7802;BME280;3945;48.952;9.506;2022-09-09T09:33:11;97676.63;;;23.60;51.68
7802;BME280;3945;48.952;9.506;2022-09-09T09:35:41;97675.34;;;23.79;51.11
7802;BME280;3945;48.952;9.506;2022-09-09T09:38:11;97671.84;;;23.99;51.92
7802;BME280;3945;48.952;9.506;2022-09-09T09:40:47;97663.16;;;24.18;51.18
7802;BME280;3945;48.952;9.506;2022-09-09T09:43:17;97662.31;;;24.26;50.97
7802;BME280;3945;48.952;9.506;2022-09-09T09:45:45;97660.06;;;24.07;51.58
7802;BME280;3945;48.952;9.506;2022-09-09T09:48:11;97656.72;;;24.22;51.76
7802;BME280;3945;48.952;9.506;2022-09-09T09:50:40;97654.69;;;24.19;51.39
7802;BME280;3945;48.952;9.506;2022-09-09T09:53:18;97665.28;;;23.79;51.48
7802;BME280;3945;48.952;9.506;2022-09-09T09:55:52;97672.53;;;23.25;52.30
7802;BME280;3945;48.952;9.506;2022-09-09T09:58:20;97662.00;;;22.94;52.44
7802;BME280;3945;48.952;9.506;2022-09-09T10:00:49;97664.34;;;22.75;53.10
7802;BME280;3945;48.952;9.506;2022-09-09T10:03:26;97668.03;;;22.62;54.67
7802;BME280;3945;48.952;9.506;2022-09-09T10:05:52;97654.66;;;22.48;54.17
7802;BME280;3945;48.952;9.506;2022-09-09T10:08:20;97650.53;;;22.42;54.66
7802;BME280;3945;48.952;9.506;2022-09-09T10:10:50;97648.50;;;22.39;53.47
7802;BME280;3945;48.952;9.506;2022-09-09T10:13:18;97644.38;;;22.24;53.03
7802;BME280;3945;48.952;9.506;2022-09-09T10:15:48;97652.66;;;22.19;55.17
7802;BME280;3945;48.952;9.506;2022-09-09T10:18:22;97640.41;;;22.22;55.52
7802;BME280;3945;48.952;9.506;2022-09-09T10:20:52;97653.03;;;22.55;53.38
7802;BME280;3945;48.952;9.506;2022-09-09T10:23:25;97652.94;;;22.90;52.59
7802;BME280;3945;48.952;9.506;2022-09-09T10:26:01;97648.16;;;23.16;50.44
7802;BME280;3945;48.952;9.506;2022-09-09T10:28:51;97647.84;;;23.39;49.99
7802;BME280;3945;48.952;9.506;2022-09-09T10:31:22;97646.41;;;23.62;48.98
7802;BME280;3945;48.952;9.506;2022-09-09T10:33:54;97643.59;;;23.70;48.69
7802;BME280;3945;48.952;9.506;2022-09-09T10:36:24;97641.22;;;23.90;48.24
7802;BME280;3945;48.952;9.506;2022-09-09T10:38:54;97650.13;;;24.11;45.52
7802;BME280;3945;48.952;9.506;2022-09-09T10:41:26;97649.22;;;24.19;43.95
7802;BME280;3945;48.952;9.506;2022-09-09T10:46:48;97642.06;;;24.14;42.83
7802;BME280;3945;48.952;9.506;2022-09-09T10:49:22;97649.50;;;24.26;43.11
7802;BME280;3945;48.952;9.506;2022-09-09T10:51:53;97650.88;;;24.32;42.57
7802;BME280;3945;48.952;9.506;2022-09-09T10:54:28;97650.34;;;24.51;43.74
7802;BME280;3945;48.952;9.506;2022-09-09T10:56:56;97652.06;;;24.56;43.40
7802;BME280;3945;48.952;9.506;2022-09-09T10:59:25;97649.78;;;24.58;42.49
7802;BME280;3945;48.952;9.506;2022-09-09T11:01:53;97654.22;;;24.62;42.80
7802;BME280;3945;48.952;9.506;2022-09-09T11:04:24;97652.38;;;24.42;42.55
7802;BME280;3945;48.952;9.506;2022-09-09T11:06:52;97661.50;;;24.25;43.01
7802;BME280;3945;48.952;9.506;2022-09-09T11:09:22;97651.28;;;24.22;43.84
7802;BME280;3945;48.952;9.506;2022-09-09T11:11:51;97648.19;;;24.11;43.94
7802;BME280;3945;48.952;9.506;2022-09-09T11:14:19;97643.94;;;23.90;44.13
7802;BME280;3945;48.952;9.506;2022-09-09T11:16:49;97639.75;;;23.71;45.09
7802;BME280;3945;48.952;9.506;2022-09-09T11:19:17;97653.69;;;23.49;46.06
7802;BME280;3945;48.952;9.506;2022-09-09T11:21:48;97657.31;;;23.32;49.29
7802;BME280;3945;48.952;9.506;2022-09-09T11:24:18;97644.78;;;23.19;49.96
7802;BME280;3945;48.952;9.506;2022-09-09T11:26:47;97652.13;;;23.19;50.52
7802;BME280;3945;48.952;9.506;2022-09-09T11:29:25;97644.78;;;23.19;50.59
7802;BME280;3945;48.952;9.506;2022-09-09T11:31:59;97646.34;;;23.20;51.14
7802;BME280;3945;48.952;9.506;2022-09-09T11:34:35;97648.41;;;23.23;50.33
7802;BME280;3945;48.952;9.506;2022-09-09T11:39:54;97655.84;;;23.06;50.67
7802;BME280;3945;48.952;9.506;2022-09-09T11:42:24;97662.31;;;22.92;51.03
7802;BME280;3945;48.952;9.506;2022-09-09T11:44:52;97673.88;;;22.81;51.99
7802;BME280;3945;48.952;9.506;2022-09-09T11:47:21;97698.53;;;22.58;52.30
7802;BME280;3945;48.952;9.506;2022-09-09T11:49:49;97722.56;;;21.96;59.22
7802;BME280;3945;48.952;9.506;2022-09-09T11:52:20;97733.47;;;21.48;63.22
7802;BME280;3945;48.952;9.506;2022-09-09T11:54:48;97753.72;;;20.72;66.02
7802;BME280;3945;48.952;9.506;2022-09-09T11:57:21;97760.50;;;20.16;68.14
7802;BME280;3945;48.952;9.506;2022-09-09T11:59:50;97756.25;;;19.65;69.75
7802;BME280;3945;48.952;9.506;2022-09-09T12:02:20;97755.16;;;19.53;72.80
7802;BME280;3945;48.952;9.506;2022-09-09T12:04:49;97755.88;;;19.44;74.82
7802;BME280;3945;48.952;9.506;2022-09-09T12:07:23;97753.97;;;19.45;74.92
7802;BME280;3945;48.952;9.506;2022-09-09T12:09:54;97763.97;;;19.44;74.21
7802;BME280;3945;48.952;9.506;2022-09-09T12:12:24;97756.69;;;19.45;75.54
7802;BME280;3945;48.952;9.506;2022-09-09T12:14:55;97733.09;;;19.37;76.03
7802;BME280;3945;48.952;9.506;2022-09-09T12:17:24;97738.28;;;19.33;75.24
7802;BME280;3945;48.952;9.506;2022-09-09T12:19:59;97730.47;;;19.32;76.66
7802;BME280;3945;48.952;9.506;2022-09-09T12:22:30;97718.78;;;19.36;76.72
7802;BME280;3945;48.952;9.506;2022-09-09T12:25:01;97715.97;;;19.41;78.18
7802;BME280;3945;48.952;9.506;2022-09-09T12:27:34;97702.09;;;19.48;78.83
7802;BME280;3945;48.952;9.506;2022-09-09T12:30:03;97701.69;;;19.55;78.34
7802;BME280;3945;48.952;9.506;2022-09-09T12:32:35;97695.00;;;19.74;80.36
7802;BME280;3945;48.952;9.506;2022-09-09T12:35:03;97684.03;;;20.15;83.39
7802;BME280;3945;48.952;9.506;2022-09-09T12:37:32;97683.81;;;20.56;82.18
7802;BME280;3945;48.952;9.506;2022-09-09T12:40:00;97682.69;;;20.97;80.34
7802;BME280;3945;48.952;9.506;2022-09-09T12:42:27;97682.16;;;21.34;73.58
7802;BME280;3945;48.952;9.506;2022-09-09T12:44:54;97680.94;;;21.66;75.42
7802;BME280;3945;48.952;9.506;2022-09-09T12:47:21;97676.78;;;21.95;75.98
7802;BME280;3945;48.952;9.506;2022-09-09T12:49:50;97677.91;;;22.11;67.55
7802;BME280;3945;48.952;9.506;2022-09-09T12:52:19;97682.66;;;22.14;64.79
7802;BME280;3945;48.952;9.506;2022-09-09T12:54:49;97678.34;;;22.22;71.90
7802;BME280;3945;48.952;9.506;2022-09-09T12:57:17;97676.09;;;22.32;70.72
7802;BME280;3945;48.952;9.506;2022-09-09T12:59:43;97673.22;;;22.29;66.02
7802;BME280;3945;48.952;9.506;2022-09-09T13:02:14;97676.59;;;22.26;62.63
7802;BME280;3945;48.952;9.506;2022-09-09T13:04:42;97668.31;;;22.05;61.33
7802;BME280;3945;48.952;9.506;2022-09-09T13:07:10;97674.25;;;21.90;64.41
7802;BME280;3945;48.952;9.506;2022-09-09T13:09:37;97672.00;;;21.74;63.78
7802;BME280;3945;48.952;9.506;2022-09-09T13:12:04;97672.50;;;21.68;63.96
7802;BME280;3945;48.952;9.506;2022-09-09T13:14:32;97667.06;;;21.59;68.69
7802;BME280;3945;48.952;9.506;2022-09-09T13:17:03;97665.16;;;21.51;72.10
7802;BME280;3945;48.952;9.506;2022-09-09T13:19:31;97661.47;;;21.47;72.44
7802;BME280;3945;48.952;9.506;2022-09-09T13:21:58;97653.38;;;21.38;69.73
7802;BME280;3945;48.952;9.506;2022-09-09T13:24:27;97650.94;;;21.28;64.90
7802;BME280;3945;48.952;9.506;2022-09-09T13:26:54;97648.41;;;21.23;66.44
7802;BME280;3945;48.952;9.506;2022-09-09T13:29:22;97653.97;;;21.35;66.88
7802;BME280;3945;48.952;9.506;2022-09-09T13:31:50;97644.13;;;21.74;66.46
7802;BME280;3945;48.952;9.506;2022-09-09T13:34:28;97640.75;;;22.11;69.45
7802;BME280;3945;48.952;9.506;2022-09-09T13:36:55;97645.63;;;22.35;61.49